sensor_id;sensor_type;location;lat;lon;timestamp;pressure;altitude;pressure_sealevel;temperature;humidity
72294;BME280;60632;49.236;8.398;2022-12-05T00:01:23;100451.16;;;5.64;72.30
72294;BME280;60632;49.236;8.398;2022-12-05T00:04:25;100464.00;;;5.69;71.96
72294;BME280;60632;49.236;8.398;2022-12-05T00:07:25;100463.16;;;5.68;72.11
72294;BME280;60632;49.236;8.398;2022-12-05T00:10:25;100456.97;;;5.68;71.98
72294;BME280;60632;49.236;8.398;2022-12-05T00:13:29;100452.81;;;5.65;72.10
72294;BME280;60632;49.236;8.398;2022-12-05T00:16:30;100462.50;;;5.59;72.29
72294;BME280;60632;49.236;8.398;2022-12-05T00:19:30;100462.69;;;5.58;72.29
72294;BME280;60632;49.236;8.398;2022-12-05T00:22:30;100463.09;;;5.55;72.49
72294;BME280;60632;49.236;8.398;2022-12-05T00:25:31;100459.53;;;5.48;72.62
72294;BME280;60632;49.236;8.398;2022-12-05T00:28:32;100475.03;;;5.46;72.59
72294;BME280;60632;49.236;8.398;2022-12-05T00:31:33;100465.72;;;5.42;72.74
72294;BME280;60632;49.236;8.398;2022-12-05T00:34:33;100469.59;;;5.39;72.64
72294;BME280;60632;49.236;8.398;2022-12-05T00:37:33;100474.16;;;5.38;72.71
72294;BME280;60632;49.236;8.398;2022-12-05T00:40:34;100473.38;;;5.45;72.45
72294;BME280;60632;49.236;8.398;2022-12-05T00:43:35;100473.59;;;5.43;72.57
72294;BME280;60632;49.236;8.398;2022-12-05T00:46:36;100469.25;;;5.49;72.39
72294;BME280;60632;49.236;8.398;2022-12-05T00:49:36;100470.72;;;5.51;72.53
72294;BME280;60632;49.236;8.398;2022-12-05T00:52:37;100472.97;;;5.48;72.49
72294;BME280;60632;49.236;8.398;2022-12-05T00:55:37;100479.00;;;5.50;72.51
72294;BME280;60632;49.236;8.398;2022-12-05T00:58:37;100489.16;;;5.54;72.35
72294;BME280;60632;49.236;8.398;2022-12-05T01:01:38;100486.28;;;5.56;72.37
72294;BME280;60632;49.236;8.398;2022-12-05T01:04:39;100481.28;;;5.53;72.41
72294;BME280;60632;49.236;8.398;2022-12-05T01:07:40;100483.34;;;5.51;72.57
72294;BME280;60632;49.236;8.398;2022-12-05T01:10:40;100491.66;;;5.56;72.58
72294;BME280;60632;49.236;8.398;2022-12-05T01:13:40;100495.81;;;5.65;72.22
72294;BME280;60632;49.236;8.398;2022-12-05T01:16:41;100498.31;;;5.67;72.40
72294;BME280;60632;49.236;8.398;2022-12-05T01:19:42;100494.56;;;5.61;72.28
72294;BME280;60632;49.236;8.398;2022-12-05T01:22:42;100493.28;;;5.50;72.74
72294;BME280;60632;49.236;8.398;2022-12-05T01:25:44;100500.66;;;5.42;72.85
72294;BME280;60632;49.236;8.398;2022-12-05T01:28:44;100496.94;;;5.43;72.97
72294;BME280;60632;49.236;8.398;2022-12-05T01:31:45;100489.91;;;5.42;72.88
72294;BME280;60632;49.236;8.398;2022-12-05T01:34:45;100489.28;;;5.40;72.93
72294;BME280;60632;49.236;8.398;2022-12-05T01:37:45;100490.69;;;5.35;73.05
72294;BME280;60632;49.236;8.398;2022-12-05T01:40:46;100487.03;;;5.43;72.98
72294;BME280;60632;49.236;8.398;2022-12-05T01:43:57;100497.03;;;5.56;72.45
72294;BME280;60632;49.236;8.398;2022-12-05T01:46:58;100498.50;;;5.65;72.46
72294;BME280;60632;49.236;8.398;2022-12-05T01:49:58;100512.03;;;5.72;72.19
72294;BME280;60632;49.236;8.398;2022-12-05T01:52:59;100507.00;;;5.62;72.31
72294;BME280;60632;49.236;8.398;2022-12-05T01:55:59;100513.56;;;5.53;72.67
72294;BME280;60632;49.236;8.398;2022-12-05T01:59:00;100519.84;;;5.38;72.97
72294;BME280;60632;49.236;8.398;2022-12-05T02:02:02;100514.25;;;5.33;72.99
72294;BME280;60632;49.236;8.398;2022-12-05T02:08:22;100514.06;;;5.13;73.21
72294;BME280;60632;49.236;8.398;2022-12-05T02:11:23;100506.22;;;5.12;73.26
72294;BME280;60632;49.236;8.398;2022-12-05T02:14:27;100501.44;;;5.07;73.04
72294;BME280;60632;49.236;8.398;2022-12-05T02:30:07;100521.38;;;5.48;72.11
72294;BME280;60632;49.236;8.398;2022-12-05T02:33:16;100520.19;;;5.57;71.89
72294;BME280;60632;49.236;8.398;2022-12-05T02:42:30;100535.75;;;5.68;71.44
72294;BME280;60632;49.236;8.398;2022-12-05T02:45:33;100546.28;;;5.63;71.42
72294;BME280;60632;49.236;8.398;2022-12-05T02:48:36;100548.34;;;5.61;71.58
72294;BME280;60632;49.236;8.398;2022-12-05T02:51:41;100559.72;;;5.63;71.55
72294;BME280;60632;49.236;8.398;2022-12-05T02:54:43;100564.91;;;5.65;71.59
72294;BME280;60632;49.236;8.398;2022-12-05T02:57:48;100561.38;;;5.64;71.49
72294;BME280;60632;49.236;8.398;2022-12-05T03:00:52;100563.63;;;5.60;71.74
72294;BME280;60632;49.236;8.398;2022-12-05T03:03:53;100561.16;;;5.59;71.66
72294;BME280;60632;49.236;8.398;2022-12-05T03:07:04;100558.59;;;5.51;71.79
72294;BME280;60632;49.236;8.398;2022-12-05T03:10:06;100557.09;;;5.42;72.08
72294;BME280;60632;49.236;8.398;2022-12-05T03:13:08;100568.19;;;5.32;72.28
72294;BME280;60632;49.236;8.398;2022-12-05T03:16:11;100566.31;;;5.32;72.50
72294;BME280;60632;49.236;8.398;2022-12-05T03:19:14;100574.91;;;5.21;72.79
72294;BME280;60632;49.236;8.398;2022-12-05T03:22:31;100580.19;;;5.08;73.05
72294;BME280;60632;49.236;8.398;2022-12-05T03:25:39;100576.34;;;4.96;73.23
72294;BME280;60632;49.236;8.398;2022-12-05T03:31:56;100577.59;;;5.00;73.22
72294;BME280;60632;49.236;8.398;2022-12-05T03:41:14;100592.25;;;4.97;72.84
72294;BME280;60632;49.236;8.398;2022-12-05T03:44:30;100584.13;;;4.90;73.21
72294;BME280;60632;49.236;8.398;2022-12-05T03:50:41;100575.69;;;4.94;73.08
72294;BME280;60632;49.236;8.398;2022-12-05T03:53:48;100568.44;;;4.94;73.17
72294;BME280;60632;49.236;8.398;2022-12-05T03:56:58;100570.31;;;4.94;73.11
72294;BME280;60632;49.236;8.398;2022-12-05T04:00:00;100560.31;;;4.87;73.32
72294;BME280;60632;49.236;8.398;2022-12-05T04:03:13;100572.38;;;4.91;73.21
72294;BME280;60632;49.236;8.398;2022-12-05T04:06:28;100577.53;;;4.93;73.17
72294;BME280;60632;49.236;8.398;2022-12-05T04:09:34;100576.59;;;5.01;72.79
72294;BME280;60632;49.236;8.398;2022-12-05T04:12:36;100575.13;;;4.98;73.04
72294;BME280;60632;49.236;8.398;2022-12-05T04:15:38;100572.63;;;4.97;73.10
72294;BME280;60632;49.236;8.398;2022-12-05T04:22:18;100571.78;;;4.96;72.98
72294;BME280;60632;49.236;8.398;2022-12-05T04:25:18;100571.34;;;4.93;73.08
72294;BME280;60632;49.236;8.398;2022-12-05T04:28:43;100577.75;;;4.91;73.08
72294;BME280;60632;49.236;8.398;2022-12-05T04:31:48;100573.75;;;4.87;73.37
72294;BME280;60632;49.236;8.398;2022-12-05T04:34:53;100574.41;;;4.89;73.35
72294;BME280;60632;49.236;8.398;2022-12-05T04:37:57;100575.06;;;4.91;73.34
72294;BME280;60632;49.236;8.398;2022-12-05T04:40:59;100578.75;;;4.90;73.48
72294;BME280;60632;49.236;8.398;2022-12-05T04:44:03;100562.25;;;4.94;73.15
72294;BME280;60632;49.236;8.398;2022-12-05T04:47:06;100564.16;;;5.00;73.29
72294;BME280;60632;49.236;8.398;2022-12-05T04:50:08;100559.56;;;5.15;73.02
72294;BME280;60632;49.236;8.398;2022-12-05T04:53:09;100573.31;;;5.27;72.86
72294;BME280;60632;49.236;8.398;2022-12-05T04:56:11;100573.75;;;5.30;72.58
72294;BME280;60632;49.236;8.398;2022-12-05T04:59:15;100573.75;;;5.30;72.84
72294;BME280;60632;49.236;8.398;2022-12-05T05:02:18;100584.50;;;5.30;72.91
72294;BME280;60632;49.236;8.398;2022-12-05T05:05:19;100573.38;;;5.33;72.80
72294;BME280;60632;49.236;8.398;2022-12-05T05:08:25;100579.75;;;5.32;72.73
72294;BME280;60632;49.236;8.398;2022-12-05T05:11:28;100596.78;;;5.40;72.93
72294;BME280;60632;49.236;8.398;2022-12-05T05:14:29;100600.97;;;5.49;72.59
72294;BME280;60632;49.236;8.398;2022-12-05T05:17:29;100601.66;;;5.57;72.37
72294;BME280;60632;49.236;8.398;2022-12-05T05:20:30;100612.88;;;5.61;72.23
72294;BME280;60632;49.236;8.398;2022-12-05T05:23:30;100608.75;;;5.65;72.08
72294;BME280;60632;49.236;8.398;2022-12-05T05:26:32;100617.91;;;5.71;72.02
72294;BME280;60632;49.236;8.398;2022-12-05T05:29:33;100619.38;;;5.73;71.90
72294;BME280;60632;49.236;8.398;2022-12-05T05:32:33;100619.91;;;5.62;72.02
72294;BME280;60632;49.236;8.398;2022-12-05T05:35:35;100624.59;;;5.53;72.49
72294;BME280;60632;49.236;8.398;2022-12-05T05:38:36;100626.59;;;5.45;72.81
72294;BME280;60632;49.236;8.398;2022-12-05T05:41:36;100628.66;;;5.43;72.86
72294;BME280;60632;49.236;8.398;2022-12-05T05:44:36;100625.56;;;5.46;72.92
72294;BME280;60632;49.236;8.398;2022-12-05T05:47:37;100633.38;;;5.41;72.77
72294;BME280;60632;49.236;8.398;2022-12-05T05:50:37;100627.19;;;5.40;73.08
72294;BME280;60632;49.236;8.398;2022-12-05T05:53:38;100620.19;;;5.46;72.99
72294;BME280;60632;49.236;8.398;2022-12-05T05:56:38;100620.19;;;5.46;72.81
72294;BME280;60632;49.236;8.398;2022-12-05T05:59:38;100623.50;;;5.48;73.00
72294;BME280;60632;49.236;8.398;2022-12-05T06:02:39;100620.81;;;5.48;72.77
72294;BME280;60632;49.236;8.398;2022-12-05T06:05:39;100631.56;;;5.48;73.07
72294;BME280;60632;49.236;8.398;2022-12-05T06:08:40;100634.66;;;5.45;73.04
72294;BME280;60632;49.236;8.398;2022-12-05T06:11:41;100633.38;;;5.41;73.12
72294;BME280;60632;49.236;8.398;2022-12-05T06:14:41;100649.50;;;5.41;73.06
72294;BME280;60632;49.236;8.398;2022-12-05T06:17:42;100649.25;;;5.35;73.27
72294;BME280;60632;49.236;8.398;2022-12-05T06:20:50;100647.59;;;5.34;73.24
72294;BME280;60632;49.236;8.398;2022-12-05T06:23:50;100646.94;;;5.32;73.10
72294;BME280;60632;49.236;8.398;2022-12-05T06:26:51;100659.38;;;5.33;73.37
72294;BME280;60632;49.236;8.398;2022-12-05T06:29:52;100649.25;;;5.35;73.09
72294;BME280;60632;49.236;8.398;2022-12-05T06:32:52;100650.53;;;5.40;73.00
72294;BME280;60632;49.236;8.398;2022-12-05T06:36:06;100662.78;;;5.49;72.78
72294;BME280;60632;49.236;8.398;2022-12-05T06:39:07;100661.47;;;5.59;72.52
72294;BME280;60632;49.236;8.398;2022-12-05T06:42:08;100672.50;;;5.71;72.12
72294;BME280;60632;49.236;8.398;2022-12-05T06:45:08;100670.06;;;5.76;71.98
72294;BME280;60632;49.236;8.398;2022-12-05T06:48:09;100677.13;;;5.77;72.05
72294;BME280;60632;49.236;8.398;2022-12-05T06:51:10;100676.66;;;5.74;72.50
72294;BME280;60632;49.236;8.398;2022-12-05T06:54:11;100679.75;;;5.71;72.50
72294;BME280;60632;49.236;8.398;2022-12-05T06:57:12;100692.38;;;5.70;72.58
72294;BME280;60632;49.236;8.398;2022-12-05T07:00:12;100685.91;;;5.65;72.95
72294;BME280;60632;49.236;8.398;2022-12-05T07:03:31;100677.38;;;5.61;72.96
72294;BME280;60632;49.236;8.398;2022-12-05T07:06:32;100682.66;;;5.69;73.00
72294;BME280;60632;49.236;8.398;2022-12-05T07:09:33;100695.38;;;5.82;72.73
72294;BME280;60632;49.236;8.398;2022-12-05T07:12:47;100705.78;;;5.92;72.61
72294;BME280;60632;49.236;8.398;2022-12-05T07:15:47;100705.34;;;5.88;72.77
72294;BME280;60632;49.236;8.398;2022-12-05T07:18:48;100702.84;;;5.87;72.86
72294;BME280;60632;49.236;8.398;2022-12-05T07:21:49;100702.03;;;5.86;72.91
72294;BME280;60632;49.236;8.398;2022-12-05T07:24:50;100700.59;;;5.90;72.75
72294;BME280;60632;49.236;8.398;2022-12-05T07:27:50;100701.31;;;5.99;72.78
72294;BME280;60632;49.236;8.398;2022-12-05T07:31:07;100704.66;;;6.01;72.61
72294;BME280;60632;49.236;8.398;2022-12-05T07:34:08;100702.97;;;6.00;72.73
72294;BME280;60632;49.236;8.398;2022-12-05T07:37:08;100707.91;;;5.96;72.90
72294;BME280;60632;49.236;8.398;2022-12-05T07:40:09;100716.56;;;5.92;73.03
72294;BME280;60632;49.236;8.398;2022-12-05T07:43:10;100720.81;;;6.01;72.84
72294;BME280;60632;49.236;8.398;2022-12-05T07:46:10;100723.81;;;6.19;72.48
72294;BME280;60632;49.236;8.398;2022-12-05T07:49:10;100727.50;;;6.40;72.11
72294;BME280;60632;49.236;8.398;2022-12-05T07:52:11;100730.69;;;6.57;71.70
72294;BME280;60632;49.236;8.398;2022-12-05T07:55:14;100728.66;;;6.65;71.41
72294;BME280;60632;49.236;8.398;2022-12-05T07:58:14;100730.09;;;6.61;71.50
72294;BME280;60632;49.236;8.398;2022-12-05T08:01:16;100739.34;;;6.52;71.83
72294;BME280;60632;49.236;8.398;2022-12-05T08:04:17;100734.75;;;6.46;72.02
72294;BME280;60632;49.236;8.398;2022-12-05T08:07:17;100732.88;;;6.40;72.10
72294;BME280;60632;49.236;8.398;2022-12-05T08:10:18;100730.53;;;6.30;72.56
72294;BME280;60632;49.236;8.398;2022-12-05T08:13:18;100728.19;;;6.20;72.70
72294;BME280;60632;49.236;8.398;2022-12-05T08:16:21;100738.06;;;6.13;72.94
72294;BME280;60632;49.236;8.398;2022-12-05T08:19:22;100744.47;;;6.12;73.15
72294;BME280;60632;49.236;8.398;2022-12-05T08:22:22;100740.13;;;6.11;73.06
72294;BME280;60632;49.236;8.398;2022-12-05T08:25:23;100737.06;;;6.14;73.00
72294;BME280;60632;49.236;8.398;2022-12-05T08:28:23;100740.13;;;6.11;72.92
72294;BME280;60632;49.236;8.398;2022-12-05T08:31:24;100751.47;;;6.06;73.15
72294;BME280;60632;49.236;8.398;2022-12-05T08:34:25;100760.13;;;6.02;73.17
72294;BME280;60632;49.236;8.398;2022-12-05T08:37:26;100757.00;;;5.98;73.24
72294;BME280;60632;49.236;8.398;2022-12-05T08:40:26;100766.28;;;5.96;73.39
72294;BME280;60632;49.236;8.398;2022-12-05T08:43:27;100761.38;;;6.06;73.17
72294;BME280;60632;49.236;8.398;2022-12-05T08:46:28;100767.91;;;6.18;72.85
72294;BME280;60632;49.236;8.398;2022-12-05T08:49:29;100767.38;;;6.29;72.60
72294;BME280;60632;49.236;8.398;2022-12-05T08:52:29;100774.66;;;6.36;72.46
72294;BME280;60632;49.236;8.398;2022-12-05T08:55:29;100769.22;;;6.29;72.53
72294;BME280;60632;49.236;8.398;2022-12-05T08:58:30;100775.22;;;6.24;72.79
72294;BME280;60632;49.236;8.398;2022-12-05T09:01:31;100780.00;;;6.29;72.81
72294;BME280;60632;49.236;8.398;2022-12-05T09:04:32;100787.94;;;6.37;72.63
72294;BME280;60632;49.236;8.398;2022-12-05T09:07:32;100789.41;;;6.40;72.61
72294;BME280;60632;49.236;8.398;2022-12-05T09:10:32;100799.31;;;6.39;72.61
72294;BME280;60632;49.236;8.398;2022-12-05T09:13:33;100792.50;;;6.37;72.67
72294;BME280;60632;49.236;8.398;2022-12-05T09:16:34;100795.56;;;6.34;72.65
72294;BME280;60632;49.236;8.398;2022-12-05T09:19:35;100799.94;;;6.35;72.73
72294;BME280;60632;49.236;8.398;2022-12-05T09:22:35;100799.53;;;6.38;72.70
72294;BME280;60632;49.236;8.398;2022-12-05T09:25:35;100800.56;;;6.37;72.76
72294;BME280;60632;49.236;8.398;2022-12-05T09:28:36;100815.03;;;6.36;72.94
72294;BME280;60632;49.236;8.398;2022-12-05T09:31:37;100811.13;;;6.38;72.78
72294;BME280;60632;49.236;8.398;2022-12-05T09:34:37;100816.91;;;6.35;72.85
72294;BME280;60632;49.236;8.398;2022-12-05T09:37:38;100817.13;;;6.34;73.09
72294;BME280;60632;49.236;8.398;2022-12-05T09:40:39;100822.88;;;6.30;73.13
72294;BME280;60632;49.236;8.398;2022-12-05T09:46:45;100822.09;;;6.37;73.12
72294;BME280;60632;49.236;8.398;2022-12-05T09:50:00;100826.94;;;6.48;72.83
72294;BME280;60632;49.236;8.398;2022-12-05T09:53:03;100828.09;;;6.60;72.52
72294;BME280;60632;49.236;8.398;2022-12-05T09:59:23;100832.47;;;6.96;72.03
72294;BME280;60632;49.236;8.398;2022-12-05T10:02:46;100824.69;;;7.14;71.71
72294;BME280;60632;49.236;8.398;2022-12-05T10:15:44;100824.38;;;7.37;71.54
72294;BME280;60632;49.236;8.398;2022-12-05T10:21:51;100813.41;;;7.52;71.39
72294;BME280;60632;49.236;8.398;2022-12-05T10:24:59;100818.22;;;7.57;71.23
72294;BME280;60632;49.236;8.398;2022-12-05T10:28:02;100822.78;;;7.56;71.39
72294;BME280;60632;49.236;8.398;2022-12-05T10:31:06;100811.75;;;7.51;71.42
72294;BME280;60632;49.236;8.398;2022-12-05T10:34:14;100821.75;;;7.57;71.37
72294;BME280;60632;49.236;8.398;2022-12-05T10:37:16;100822.50;;;7.38;71.88
72294;BME280;60632;49.236;8.398;2022-12-05T10:40:17;100821.47;;;7.39;71.97
72294;BME280;60632;49.236;8.398;2022-12-05T10:43:22;100833.09;;;7.46;71.78
72294;BME280;60632;49.236;8.398;2022-12-05T10:46:23;100819.44;;;7.54;71.70
72294;BME280;60632;49.236;8.398;2022-12-05T10:49:24;100829.00;;;7.57;71.53
72294;BME280;60632;49.236;8.398;2022-12-05T10:52:25;100835.22;;;7.57;71.54
72294;BME280;60632;49.236;8.398;2022-12-05T10:55:29;100833.56;;;7.50;71.75
72294;BME280;60632;49.236;8.398;2022-12-05T10:58:30;100826.44;;;7.42;71.88
72294;BME280;60632;49.236;8.398;2022-12-05T11:01:31;100823.31;;;7.32;72.03
72294;BME280;60632;49.236;8.398;2022-12-05T11:04:41;100825.13;;;7.18;72.42
72294;BME280;60632;49.236;8.398;2022-12-05T11:10:43;100823.13;;;6.92;72.85
72294;BME280;60632;49.236;8.398;2022-12-05T11:14:20;100808.72;;;6.78;73.10
72294;BME280;60632;49.236;8.398;2022-12-05T11:17:10;100817.81;;;6.77;73.23
72294;BME280;60632;49.236;8.398;2022-12-05T11:23:23;100811.56;;;6.70;73.26
72294;BME280;60632;49.236;8.398;2022-12-05T11:26:34;100823.81;;;6.72;73.28
72294;BME280;60632;49.236;8.398;2022-12-05T11:29:36;100816.34;;;6.74;73.07
72294;BME280;60632;49.236;8.398;2022-12-05T11:32:36;100817.00;;;6.76;72.99
72294;BME280;60632;49.236;8.398;2022-12-05T11:35:37;100815.34;;;6.75;73.02
72294;BME280;60632;49.236;8.398;2022-12-05T11:38:37;100809.56;;;6.78;73.04
72294;BME280;60632;49.236;8.398;2022-12-05T11:42:01;100812.09;;;6.87;72.88
72294;BME280;60632;49.236;8.398;2022-12-05T11:45:14;100814.38;;;6.90;72.79
72294;BME280;60632;49.236;8.398;2022-12-05T11:54:28;100812.19;;;7.07;72.55
72294;BME280;60632;49.236;8.398;2022-12-05T12:00:59;100803.16;;;7.21;72.40
72294;BME280;60632;49.236;8.398;2022-12-05T12:10:32;100796.09;;;7.27;72.47
72294;BME280;60632;49.236;8.398;2022-12-05T12:20:14;100787.22;;;7.39;72.29
72294;BME280;60632;49.236;8.398;2022-12-05T12:23:22;100789.94;;;7.46;72.15
72294;BME280;60632;49.236;8.398;2022-12-05T12:35:34;100799.44;;;7.29;72.66
72294;BME280;60632;49.236;8.398;2022-12-05T12:38:46;100790.72;;;7.27;72.78
72294;BME280;60632;49.236;8.398;2022-12-05T12:51:12;100801.31;;;7.28;72.63
72294;BME280;60632;49.236;8.398;2022-12-05T13:00:46;100792.00;;;7.31;72.77
72294;BME280;60632;49.236;8.398;2022-12-05T13:03:51;100786.34;;;7.25;72.76
72294;BME280;60632;49.236;8.398;2022-12-05T13:06:57;100786.59;;;7.31;72.85
72294;BME280;60632;49.236;8.398;2022-12-05T13:09:59;100789.75;;;7.41;72.60
72294;BME280;60632;49.236;8.398;2022-12-05T13:13:02;100791.63;;;7.47;72.46
72294;BME280;60632;49.236;8.398;2022-12-05T13:16:04;100799.72;;;7.47;72.54
72294;BME280;60632;49.236;8.398;2022-12-05T13:19:08;100799.91;;;7.45;72.46
72294;BME280;60632;49.236;8.398;2022-12-05T13:22:21;100797.84;;;7.47;72.39
72294;BME280;60632;49.236;8.398;2022-12-05T13:25:23;100803.66;;;7.51;72.49
72294;BME280;60632;49.236;8.398;2022-12-05T13:31:34;100804.09;;;7.61;72.13
72294;BME280;60632;49.236;8.398;2022-12-05T13:37:44;100801.66;;;7.66;72.18
72294;BME280;60632;49.236;8.398;2022-12-05T13:41:04;100797.91;;;7.67;72.32
72294;BME280;60632;49.236;8.398;2022-12-05T13:44:31;100803.94;;;7.69;72.09
72294;BME280;60632;49.236;8.398;2022-12-05T13:47:37;100804.13;;;7.75;72.05
72294;BME280;60632;49.236;8.398;2022-12-05T13:53:55;100810.34;;;7.68;72.42
72294;BME280;60632;49.236;8.398;2022-12-05T13:56:58;100809.50;;;7.68;72.20
72294;BME280;60632;49.236;8.398;2022-12-05T14:09:52;100821.53;;;7.65;72.29
72294;BME280;60632;49.236;8.398;2022-12-05T14:12:54;100821.13;;;7.68;72.31
72294;BME280;60632;49.236;8.398;2022-12-05T14:16:36;100823.41;;;7.65;72.35
72294;BME280;60632;49.236;8.398;2022-12-05T14:22:55;100819.88;;;7.58;72.49
72294;BME280;60632;49.236;8.398;2022-12-05T14:29:28;100819.88;;;7.58;72.34
72294;BME280;60632;49.236;8.398;2022-12-05T14:32:37;100820.09;;;7.56;72.33
72294;BME280;60632;49.236;8.398;2022-12-05T14:35:42;100818.41;;;7.55;72.43
72294;BME280;60632;49.236;8.398;2022-12-05T14:38:45;100821.34;;;7.60;72.32
72294;BME280;60632;49.236;8.398;2022-12-05T14:41:45;100829.63;;;7.65;72.02
72294;BME280;60632;49.236;8.398;2022-12-05T14:44:48;100830.91;;;7.63;72.15
72294;BME280;60632;49.236;8.398;2022-12-05T14:47:53;100838.16;;;7.62;72.32
72294;BME280;60632;49.236;8.398;2022-12-05T14:50:55;100831.47;;;7.58;72.24
72294;BME280;60632;49.236;8.398;2022-12-05T14:54:05;100826.28;;;7.50;72.38
72294;BME280;60632;49.236;8.398;2022-12-05T14:57:10;100828.34;;;7.48;72.42
72294;BME280;60632;49.236;8.398;2022-12-05T15:00:22;100824.00;;;7.47;72.40
72294;BME280;60632;49.236;8.398;2022-12-05T15:03:24;100830.63;;;7.44;72.44
72294;BME280;60632;49.236;8.398;2022-12-05T15:06:28;100830.41;;;7.46;72.37
72294;BME280;60632;49.236;8.398;2022-12-05T15:12:53;100828.13;;;7.43;72.48
72294;BME280;60632;49.236;8.398;2022-12-05T15:16:05;100822.25;;;7.33;72.49
72294;BME280;60632;49.236;8.398;2022-12-05T15:22:36;100839.22;;;7.27;72.74
72294;BME280;60632;49.236;8.398;2022-12-05T15:25:37;100832.59;;;7.22;72.78
72294;BME280;60632;49.236;8.398;2022-12-05T15:28:37;100837.13;;;7.15;72.88
72294;BME280;60632;49.236;8.398;2022-12-05T15:31:39;100835.88;;;7.11;72.90
72294;BME280;60632;49.236;8.398;2022-12-05T15:38:00;100845.41;;;7.14;72.83
72294;BME280;60632;49.236;8.398;2022-12-05T15:41:02;100852.66;;;7.13;72.74
72294;BME280;60632;49.236;8.398;2022-12-05T15:44:02;100842.50;;;7.15;72.66
72294;BME280;60632;49.236;8.398;2022-12-05T15:47:04;100844.97;;;7.10;72.81
72294;BME280;60632;49.236;8.398;2022-12-05T15:50:04;100839.34;;;7.05;72.80
72294;BME280;60632;49.236;8.398;2022-12-05T15:56:29;100845.72;;;6.97;72.74
72294;BME280;60632;49.236;8.398;2022-12-05T15:59:41;100850.66;;;6.94;73.00
72294;BME280;60632;49.236;8.398;2022-12-05T16:02:45;100851.28;;;6.89;72.92
72294;BME280;60632;49.236;8.398;2022-12-05T16:05:48;100848.97;;;6.86;72.90
72294;BME280;60632;49.236;8.398;2022-12-05T16:08:51;100846.47;;;6.85;72.97
72294;BME280;60632;49.236;8.398;2022-12-05T16:11:56;100845.41;;;6.79;73.04
72294;BME280;60632;49.236;8.398;2022-12-05T16:15:00;100850.75;;;6.72;73.19
72294;BME280;60632;49.236;8.398;2022-12-05T16:18:02;100846.19;;;6.73;73.15
72294;BME280;60632;49.236;8.398;2022-12-05T16:21:25;100845.50;;;6.64;73.32
72294;BME280;60632;49.236;8.398;2022-12-05T16:24:27;100860.84;;;6.64;73.25
72294;BME280;60632;49.236;8.398;2022-12-05T16:27:32;100876.78;;;6.65;73.28
72294;BME280;60632;49.236;8.398;2022-12-05T16:30:34;100872.44;;;6.64;73.16
72294;BME280;60632;49.236;8.398;2022-12-05T16:33:35;100868.69;;;6.65;73.06
72294;BME280;60632;49.236;8.398;2022-12-05T16:36:35;100867.06;;;6.64;73.04
72294;BME280;60632;49.236;8.398;2022-12-05T16:39:45;100873.91;;;6.67;73.00
72294;BME280;60632;49.236;8.398;2022-12-05T16:42:46;100869.75;;;6.64;72.93
72294;BME280;60632;49.236;8.398;2022-12-05T16:49:31;100866.19;;;6.85;72.49
72294;BME280;60632;49.236;8.398;2022-12-05T16:52:30;100854.41;;;6.93;72.27
72294;BME280;60632;49.236;8.398;2022-12-05T16:55:32;100862.75;;;6.98;72.24
72294;BME280;60632;49.236;8.398;2022-12-05T16:58:36;100860.25;;;7.03;72.25
72294;BME280;60632;49.236;8.398;2022-12-05T17:01:37;100864.03;;;7.09;72.08
72294;BME280;60632;49.236;8.398;2022-12-05T17:04:38;100879.78;;;7.05;72.18
72294;BME280;60632;49.236;8.398;2022-12-05T17:07:39;100874.38;;;7.05;72.11
72294;BME280;60632;49.236;8.398;2022-12-05T17:10:40;100873.59;;;7.11;72.09
72294;BME280;60632;49.236;8.398;2022-12-05T17:13:41;100876.94;;;7.20;71.81
72294;BME280;60632;49.236;8.398;2022-12-05T17:16:44;100872.00;;;7.23;71.60
72294;BME280;60632;49.236;8.398;2022-12-05T17:19:45;100868.25;;;7.18;71.68
72294;BME280;60632;49.236;8.398;2022-12-05T17:22:46;100869.06;;;7.18;71.77
72294;BME280;60632;49.236;8.398;2022-12-05T17:25:54;100870.72;;;7.19;71.69
72294;BME280;60632;49.236;8.398;2022-12-05T17:28:55;100875.25;;;7.12;71.87
72294;BME280;60632;49.236;8.398;2022-12-05T17:31:57;100874.00;;;7.08;71.97
72294;BME280;60632;49.236;8.398;2022-12-05T17:34:58;100869.81;;;7.06;72.22
72294;BME280;60632;49.236;8.398;2022-12-05T17:37:59;100872.09;;;7.02;72.36
72294;BME280;60632;49.236;8.398;2022-12-05T17:41:00;100864.41;;;6.99;72.30
72294;BME280;60632;49.236;8.398;2022-12-05T17:44:02;100857.25;;;6.85;72.34
72294;BME280;60632;49.236;8.398;2022-12-05T17:47:03;100865.06;;;6.73;72.61
72294;BME280;60632;49.236;8.398;2022-12-05T17:50:04;100857.53;;;6.68;72.70
72294;BME280;60632;49.236;8.398;2022-12-05T17:53:07;100853.84;;;6.69;72.74
72294;BME280;60632;49.236;8.398;2022-12-05T17:56:08;100858.84;;;6.72;72.49
72294;BME280;60632;49.236;8.398;2022-12-05T17:59:10;100861.75;;;6.77;72.33
72294;BME280;60632;49.236;8.398;2022-12-05T18:02:11;100860.09;;;6.76;72.25
72294;BME280;60632;49.236;8.398;2022-12-05T18:05:13;100875.81;;;6.73;72.24
72294;BME280;60632;49.236;8.398;2022-12-05T18:08:14;100881.41;;;6.71;72.37
72294;BME280;60632;49.236;8.398;2022-12-05T18:11:16;100874.22;;;6.78;72.22
72294;BME280;60632;49.236;8.398;2022-12-05T18:14:17;100875.09;;;6.86;71.81
72294;BME280;60632;49.236;8.398;2022-12-05T18:17:19;100880.09;;;6.89;71.65
72294;BME280;60632;49.236;8.398;2022-12-05T18:20:20;100877.81;;;6.92;71.64
72294;BME280;60632;49.236;8.398;2022-12-05T18:23:21;100880.13;;;6.95;71.35
72294;BME280;60632;49.236;8.398;2022-12-05T18:26:22;100872.72;;;7.04;71.36
72294;BME280;60632;49.236;8.398;2022-12-05T18:29:24;100876.09;;;7.13;71.06
72294;BME280;60632;49.236;8.398;2022-12-05T18:32:25;100878.19;;;7.17;70.89
72294;BME280;60632;49.236;8.398;2022-12-05T18:35:26;100867.81;;;7.14;71.13
72294;BME280;60632;49.236;8.398;2022-12-05T18:38:42;100875.59;;;7.03;71.19
72294;BME280;60632;49.236;8.398;2022-12-05T18:41:43;100875.97;;;6.93;71.50
72294;BME280;60632;49.236;8.398;2022-12-05T18:44:44;100877.56;;;6.87;71.59